sensor_id;sensor_type;location;lat;lon;timestamp;P1;durP1;ratioP1;P2;durP2;ratioP2
39492;SDS011;25176;51.060;3.720;2023-04-03T00:02:12;7.25;;;4.18;;
39492;SDS011;25176;51.060;3.720;2023-04-03T00:04:37;7.68;;;4.07;;
39492;SDS011;25176;51.060;3.720;2023-04-03T00:07:03;6.30;;;4.25;;
39492;SDS011;25176;51.060;3.720;2023-04-03T00:09:28;4.88;;;3.55;;
39492;SDS011;25176;51.060;3.720;2023-04-03T00:11:54;4.78;;;3.83;;
39492;SDS011;25176;51.060;3.720;2023-04-03T00:14:19;6.38;;;3.70;;
39492;SDS011;25176;51.060;3.720;2023-04-03T00:16:45;6.70;;;3.95;;
39492;SDS011;25176;51.060;3.720;2023-04-03T00:19:10;5.45;;;3.70;;
39492;SDS011;25176;51.060;3.720;2023-04-03T00:21:37;6.07;;;3.95;;
39492;SDS011;25176;51.060;3.720;2023-04-03T00:24:03;5.85;;;3.63;;
39492;SDS011;25176;51.060;3.720;2023-04-03T00:26:29;5.97;;;3.72;;
39492;SDS011;25176;51.060;3.720;2023-04-03T00:28:54;4.80;;;3.40;;
39492;SDS011;25176;51.060;3.720;2023-04-03T00:31:21;6.05;;;4.05;;
39492;SDS011;25176;51.060;3.720;2023-04-03T00:33:46;6.00;;;4.05;;
39492;SDS011;25176;51.060;3.720;2023-04-03T00:36:12;6.75;;;4.43;;
39492;SDS011;25176;51.060;3.720;2023-04-03T00:38:38;5.43;;;4.38;;
39492;SDS011;25176;51.060;3.720;2023-04-03T00:41:04;5.88;;;4.30;;
39492;SDS011;25176;51.060;3.720;2023-04-03T00:43:30;5.53;;;4.30;;
39492;SDS011;25176;51.060;3.720;2023-04-03T00:45:56;4.65;;;4.10;;
39492;SDS011;25176;51.060;3.720;2023-04-03T00:48:26;8.43;;;4.05;;
39492;SDS011;25176;51.060;3.720;2023-04-03T00:50:55;4.90;;;3.88;;
39492;SDS011;25176;51.060;3.720;2023-04-03T00:53:23;8.18;;;4.22;;
39492;SDS011;25176;51.060;3.720;2023-04-03T00:55:54;4.97;;;3.47;;
39492;SDS011;25176;51.060;3.720;2023-04-03T00:58:21;5.22;;;4.10;;
39492;SDS011;25176;51.060;3.720;2023-04-03T01:00:53;7.32;;;4.38;;
39492;SDS011;25176;51.060;3.720;2023-04-03T01:03:23;6.65;;;3.95;;
39492;SDS011;25176;51.060;3.720;2023-04-03T01:05:49;5.00;;;3.90;;
39492;SDS011;25176;51.060;3.720;2023-04-03T01:08:15;6.47;;;3.60;;
39492;SDS011;25176;51.060;3.720;2023-04-03T01:10:40;7.05;;;3.97;;
39492;SDS011;25176;51.060;3.720;2023-04-03T01:13:21;5.15;;;3.92;;
39492;SDS011;25176;51.060;3.720;2023-04-03T01:15:49;4.78;;;3.65;;
39492;SDS011;25176;51.060;3.720;2023-04-03T01:18:14;5.72;;;3.67;;
39492;SDS011;25176;51.060;3.720;2023-04-03T01:20:44;6.22;;;3.85;;
39492;SDS011;25176;51.060;3.720;2023-04-03T01:25:52;7.35;;;4.57;;
39492;SDS011;25176;51.060;3.720;2023-04-03T01:33:40;6.68;;;3.90;;
39492;SDS011;25176;51.060;3.720;2023-04-03T01:36:07;7.72;;;4.30;;
39492;SDS011;25176;51.060;3.720;2023-04-03T01:38:33;8.25;;;4.22;;
39492;SDS011;25176;51.060;3.720;2023-04-03T01:40:59;4.68;;;3.72;;
39492;SDS011;25176;51.060;3.720;2023-04-03T01:43:25;7.57;;;4.10;;
39492;SDS011;25176;51.060;3.720;2023-04-03T01:45:50;7.47;;;4.38;;
39492;SDS011;25176;51.060;3.720;2023-04-03T01:48:17;6.40;;;4.18;;
39492;SDS011;25176;51.060;3.720;2023-04-03T01:50:43;10.32;;;4.38;;
39492;SDS011;25176;51.060;3.720;2023-04-03T01:53:08;7.28;;;4.55;;
39492;SDS011;25176;51.060;3.720;2023-04-03T01:55:34;5.93;;;4.32;;
39492;SDS011;25176;51.060;3.720;2023-04-03T01:58:00;7.13;;;4.32;;
39492;SDS011;25176;51.060;3.720;2023-04-03T02:00:25;6.43;;;4.30;;
39492;SDS011;25176;51.060;3.720;2023-04-03T02:02:51;13.13;;;4.60;;
39492;SDS011;25176;51.060;3.720;2023-04-03T02:05:17;5.30;;;4.40;;
39492;SDS011;25176;51.060;3.720;2023-04-03T02:07:43;6.05;;;4.40;;
39492;SDS011;25176;51.060;3.720;2023-04-03T02:10:09;7.43;;;4.55;;
39492;SDS011;25176;51.060;3.720;2023-04-03T02:12:35;9.20;;;4.72;;
39492;SDS011;25176;51.060;3.720;2023-04-03T02:15:00;6.95;;;4.88;;
39492;SDS011;25176;51.060;3.720;2023-04-03T02:17:26;8.15;;;4.28;;
39492;SDS011;25176;51.060;3.720;2023-04-03T02:19:52;10.32;;;5.57;;
39492;SDS011;25176;51.060;3.720;2023-04-03T02:22:17;6.25;;;4.50;;
39492;SDS011;25176;51.060;3.720;2023-04-03T02:24:44;7.43;;;4.28;;
39492;SDS011;25176;51.060;3.720;2023-04-03T02:27:09;6.32;;;4.32;;
39492;SDS011;25176;51.060;3.720;2023-04-03T02:29:35;6.28;;;3.55;;
39492;SDS011;25176;51.060;3.720;2023-04-03T02:32:00;4.70;;;4.20;;
39492;SDS011;25176;51.060;3.720;2023-04-03T02:34:26;6.88;;;4.28;;
39492;SDS011;25176;51.060;3.720;2023-04-03T02:36:51;8.65;;;4.53;;
39492;SDS011;25176;51.060;3.720;2023-04-03T02:39:17;4.72;;;4.03;;
39492;SDS011;25176;51.060;3.720;2023-04-03T02:41:43;8.98;;;5.00;;
39492;SDS011;25176;51.060;3.720;2023-04-03T02:44:09;7.05;;;4.43;;
39492;SDS011;25176;51.060;3.720;2023-04-03T02:46:35;6.60;;;4.57;;
39492;SDS011;25176;51.060;3.720;2023-04-03T02:49:01;6.97;;;5.28;;
39492;SDS011;25176;51.060;3.720;2023-04-03T02:51:27;5.53;;;4.50;;
39492;SDS011;25176;51.060;3.720;2023-04-03T02:53:53;6.75;;;4.90;;
39492;SDS011;25176;51.060;3.720;2023-04-03T02:56:19;5.95;;;3.95;;
39492;SDS011;25176;51.060;3.720;2023-04-03T02:58:45;6.20;;;4.03;;
39492;SDS011;25176;51.060;3.720;2023-04-03T03:01:10;5.70;;;4.55;;
39492;SDS011;25176;51.060;3.720;2023-04-03T03:03:36;7.00;;;3.92;;
39492;SDS011;25176;51.060;3.720;2023-04-03T03:06:20;6.90;;;4.82;;
39492;SDS011;25176;51.060;3.720;2023-04-03T03:08:45;5.57;;;4.90;;
39492;SDS011;25176;51.060;3.720;2023-04-03T03:11:11;7.65;;;4.60;;
39492;SDS011;25176;51.060;3.720;2023-04-03T03:13:37;6.75;;;4.35;;
39492;SDS011;25176;51.060;3.720;2023-04-03T03:16:03;6.70;;;4.20;;
39492;SDS011;25176;51.060;3.720;2023-04-03T03:18:28;8.68;;;3.97;;
39492;SDS011;25176;51.060;3.720;2023-04-03T03:20:55;6.72;;;4.35;;
39492;SDS011;25176;51.060;3.720;2023-04-03T03:23:23;7.72;;;4.60;;
39492;SDS011;25176;51.060;3.720;2023-04-03T03:25:49;6.97;;;3.60;;
39492;SDS011;25176;51.060;3.720;2023-04-03T03:28:27;6.63;;;3.97;;
39492;SDS011;25176;51.060;3.720;2023-04-03T03:30:53;5.00;;;4.07;;
39492;SDS011;25176;51.060;3.720;2023-04-03T03:33:18;6.93;;;3.97;;
39492;SDS011;25176;51.060;3.720;2023-04-03T03:35:44;5.32;;;3.92;;
39492;SDS011;25176;51.060;3.720;2023-04-03T03:38:10;8.07;;;4.82;;
39492;SDS011;25176;51.060;3.720;2023-04-03T03:40:36;5.32;;;4.82;;
39492;SDS011;25176;51.060;3.720;2023-04-03T03:43:02;7.00;;;4.18;;
39492;SDS011;25176;51.060;3.720;2023-04-03T03:45:28;6.18;;;4.10;;
39492;SDS011;25176;51.060;3.720;2023-04-03T03:47:53;6.82;;;4.70;;
39492;SDS011;25176;51.060;3.720;2023-04-03T03:50:19;6.05;;;4.20;;
39492;SDS011;25176;51.060;3.720;2023-04-03T03:52:45;10.20;;;4.28;;
39492;SDS011;25176;51.060;3.720;2023-04-03T03:55:11;5.88;;;4.78;;
39492;SDS011;25176;51.060;3.720;2023-04-03T03:57:36;9.35;;;4.57;;
39492;SDS011;25176;51.060;3.720;2023-04-03T04:00:02;8.02;;;5.10;;
39492;SDS011;25176;51.060;3.720;2023-04-03T04:02:29;7.75;;;4.45;;
39492;SDS011;25176;51.060;3.720;2023-04-03T04:04:55;7.65;;;4.93;;
39492;SDS011;25176;51.060;3.720;2023-04-03T04:07:21;6.50;;;5.03;;
39492;SDS011;25176;51.060;3.720;2023-04-03T04:09:47;6.07;;;5.13;;
39492;SDS011;25176;51.060;3.720;2023-04-03T04:12:13;7.70;;;5.70;;
39492;SDS011;25176;51.060;3.720;2023-04-03T04:14:39;7.75;;;5.60;;
39492;SDS011;25176;51.060;3.720;2023-04-03T04:17:05;7.18;;;5.22;;
39492;SDS011;25176;51.060;3.720;2023-04-03T04:19:30;7.45;;;5.05;;
39492;SDS011;25176;51.060;3.720;2023-04-03T04:21:56;6.10;;;5.15;;
39492;SDS011;25176;51.060;3.720;2023-04-03T04:24:21;8.23;;;4.95;;
39492;SDS011;25176;51.060;3.720;2023-04-03T04:26:50;10.18;;;5.03;;
39492;SDS011;25176;51.060;3.720;2023-04-03T04:29:16;7.53;;;4.50;;
39492;SDS011;25176;51.060;3.720;2023-04-03T04:31:41;5.88;;;4.57;;
39492;SDS011;25176;51.060;3.720;2023-04-03T04:34:07;6.60;;;5.75;;
39492;SDS011;25176;51.060;3.720;2023-04-03T04:36:32;5.45;;;4.63;;
39492;SDS011;25176;51.060;3.720;2023-04-03T04:38:58;8.35;;;5.38;;
39492;SDS011;25176;51.060;3.720;2023-04-03T04:41:24;7.13;;;5.45;;
39492;SDS011;25176;51.060;3.720;2023-04-03T04:43:49;8.40;;;5.18;;
39492;SDS011;25176;51.060;3.720;2023-04-03T04:46:15;7.25;;;5.07;;
39492;SDS011;25176;51.060;3.720;2023-04-03T04:48:41;8.27;;;5.53;;
39492;SDS011;25176;51.060;3.720;2023-04-03T04:51:07;7.55;;;5.57;;
39492;SDS011;25176;51.060;3.720;2023-04-03T04:53:32;7.15;;;6.35;;
39492;SDS011;25176;51.060;3.720;2023-04-03T04:55:58;8.80;;;5.10;;
39492;SDS011;25176;51.060;3.720;2023-04-03T04:58:24;7.80;;;5.25;;
39492;SDS011;25176;51.060;3.720;2023-04-03T05:00:57;11.25;;;6.00;;
39492;SDS011;25176;51.060;3.720;2023-04-03T05:03:27;7.57;;;4.90;;
39492;SDS011;25176;51.060;3.720;2023-04-03T05:05:53;10.35;;;6.03;;
39492;SDS011;25176;51.060;3.720;2023-04-03T05:08:18;7.60;;;5.35;;
39492;SDS011;25176;51.060;3.720;2023-04-03T05:10:45;8.68;;;7.22;;
39492;SDS011;25176;51.060;3.720;2023-04-03T05:13:11;9.00;;;6.10;;
39492;SDS011;25176;51.060;3.720;2023-04-03T05:15:37;8.35;;;6.50;;
39492;SDS011;25176;51.060;3.720;2023-04-03T05:18:03;9.73;;;6.15;;
39492;SDS011;25176;51.060;3.720;2023-04-03T05:20:30;7.68;;;5.65;;
39492;SDS011;25176;51.060;3.720;2023-04-03T05:22:56;11.75;;;6.82;;
39492;SDS011;25176;51.060;3.720;2023-04-03T05:25:21;7.57;;;5.90;;
39492;SDS011;25176;51.060;3.720;2023-04-03T05:27:47;10.05;;;7.88;;
39492;SDS011;25176;51.060;3.720;2023-04-03T05:30:12;10.55;;;7.80;;
39492;SDS011;25176;51.060;3.720;2023-04-03T05:32:38;16.23;;;6.78;;
39492;SDS011;25176;51.060;3.720;2023-04-03T05:35:05;14.63;;;7.38;;
39492;SDS011;25176;51.060;3.720;2023-04-03T05:37:31;11.18;;;7.68;;
39492;SDS011;25176;51.060;3.720;2023-04-03T05:39:57;11.57;;;7.18;;
39492;SDS011;25176;51.060;3.720;2023-04-03T05:42:22;10.73;;;6.60;;
39492;SDS011;25176;51.060;3.720;2023-04-03T05:44:48;8.70;;;6.47;;
39492;SDS011;25176;51.060;3.720;2023-04-03T05:47:15;11.23;;;7.20;;
39492;SDS011;25176;51.060;3.720;2023-04-03T05:49:41;10.02;;;7.78;;
39492;SDS011;25176;51.060;3.720;2023-04-03T05:54:53;11.98;;;6.72;;
39492;SDS011;25176;51.060;3.720;2023-04-03T05:57:19;9.65;;;6.88;;
39492;SDS011;25176;51.060;3.720;2023-04-03T05:59:45;7.65;;;6.38;;
39492;SDS011;25176;51.060;3.720;2023-04-03T06:02:16;11.07;;;6.97;;
39492;SDS011;25176;51.060;3.720;2023-04-03T06:04:46;10.23;;;6.65;;
39492;SDS011;25176;51.060;3.720;2023-04-03T06:07:23;13.98;;;6.80;;
39492;SDS011;25176;51.060;3.720;2023-04-03T06:09:52;9.40;;;6.85;;
39492;SDS011;25176;51.060;3.720;2023-04-03T06:12:18;10.60;;;6.30;;
39492;SDS011;25176;51.060;3.720;2023-04-03T06:14:43;8.70;;;6.28;;
39492;SDS011;25176;51.060;3.720;2023-04-03T06:17:09;8.88;;;6.32;;
39492;SDS011;25176;51.060;3.720;2023-04-03T06:19:37;8.02;;;6.38;;
39492;SDS011;25176;51.060;3.720;2023-04-03T06:22:02;11.07;;;6.47;;
39492;SDS011;25176;51.060;3.720;2023-04-03T06:24:28;8.45;;;6.93;;
39492;SDS011;25176;51.060;3.720;2023-04-03T06:26:55;11.45;;;5.85;;
39492;SDS011;25176;51.060;3.720;2023-04-03T06:29:22;8.95;;;5.80;;
39492;SDS011;25176;51.060;3.720;2023-04-03T06:31:48;9.45;;;5.50;;
39492;SDS011;25176;51.060;3.720;2023-04-03T06:34:14;15.35;;;6.25;;
39492;SDS011;25176;51.060;3.720;2023-04-03T06:36:40;9.90;;;6.65;;
39492;SDS011;25176;51.060;3.720;2023-04-03T06:39:07;12.00;;;6.07;;
39492;SDS011;25176;51.060;3.720;2023-04-03T06:41:37;14.75;;;6.93;;
39492;SDS011;25176;51.060;3.720;2023-04-03T06:44:03;9.68;;;6.78;;
39492;SDS011;25176;51.060;3.720;2023-04-03T06:46:29;8.60;;;5.78;;
39492;SDS011;25176;51.060;3.720;2023-04-03T06:48:54;9.07;;;6.10;;
39492;SDS011;25176;51.060;3.720;2023-04-03T06:51:24;8.27;;;6.60;;
39492;SDS011;25176;51.060;3.720;2023-04-03T06:53:52;9.65;;;5.65;;
39492;SDS011;25176;51.060;3.720;2023-04-03T06:56:19;7.55;;;5.82;;
39492;SDS011;25176;51.060;3.720;2023-04-03T06:58:45;16.63;;;6.95;;
39492;SDS011;25176;51.060;3.720;2023-04-03T07:01:12;8.55;;;5.63;;
39492;SDS011;25176;51.060;3.720;2023-04-03T07:03:40;9.10;;;5.57;;
39492;SDS011;25176;51.060;3.720;2023-04-03T07:06:06;11.85;;;7.38;;
39492;SDS011;25176;51.060;3.720;2023-04-03T07:08:35;11.27;;;5.93;;
39492;SDS011;25176;51.060;3.720;2023-04-03T07:11:01;9.23;;;6.28;;
39492;SDS011;25176;51.060;3.720;2023-04-03T07:13:27;11.77;;;6.75;;
39492;SDS011;25176;51.060;3.720;2023-04-03T07:15:52;8.55;;;5.50;;
39492;SDS011;25176;51.060;3.720;2023-04-03T07:18:18;7.30;;;5.95;;
39492;SDS011;25176;51.060;3.720;2023-04-03T07:20:44;10.23;;;6.95;;
39492;SDS011;25176;51.060;3.720;2023-04-03T07:23:10;9.38;;;7.35;;
39492;SDS011;25176;51.060;3.720;2023-04-03T07:25:36;8.43;;;6.15;;
39492;SDS011;25176;51.060;3.720;2023-04-03T07:28:02;9.75;;;6.35;;
39492;SDS011;25176;51.060;3.720;2023-04-03T07:30:28;8.70;;;5.72;;
39492;SDS011;25176;51.060;3.720;2023-04-03T07:32:54;7.63;;;6.03;;
39492;SDS011;25176;51.060;3.720;2023-04-03T07:35:20;8.90;;;5.80;;
39492;SDS011;25176;51.060;3.720;2023-04-03T07:37:45;11.38;;;6.35;;
39492;SDS011;25176;51.060;3.720;2023-04-03T07:40:11;8.75;;;5.57;;
39492;SDS011;25176;51.060;3.720;2023-04-03T07:42:37;11.13;;;5.97;;
39492;SDS011;25176;51.060;3.720;2023-04-03T07:45:03;9.52;;;5.05;;
39492;SDS011;25176;51.060;3.720;2023-04-03T07:47:29;6.70;;;4.22;;
39492;SDS011;25176;51.060;3.720;2023-04-03T07:49:56;7.85;;;4.28;;
39492;SDS011;25176;51.060;3.720;2023-04-03T07:52:22;4.22;;;3.58;;
39492;SDS011;25176;51.060;3.720;2023-04-03T07:54:48;6.18;;;3.20;;
39492;SDS011;25176;51.060;3.720;2023-04-03T07:57:13;6.70;;;3.63;;
39492;SDS011;25176;51.060;3.720;2023-04-03T07:59:39;6.18;;;3.50;;
39492;SDS011;25176;51.060;3.720;2023-04-03T08:02:07;6.35;;;3.65;;
39492;SDS011;25176;51.060;3.720;2023-04-03T08:04:36;7.55;;;4.03;;
39492;SDS011;25176;51.060;3.720;2023-04-03T08:07:02;7.07;;;3.90;;
39492;SDS011;25176;51.060;3.720;2023-04-03T08:09:28;10.27;;;3.80;;
39492;SDS011;25176;51.060;3.720;2023-04-03T08:11:53;6.85;;;3.78;;
39492;SDS011;25176;51.060;3.720;2023-04-03T08:14:19;9.15;;;4.13;;
39492;SDS011;25176;51.060;3.720;2023-04-03T08:16:46;8.57;;;4.80;;
39492;SDS011;25176;51.060;3.720;2023-04-03T08:19:12;10.50;;;4.82;;
39492;SDS011;25176;51.060;3.720;2023-04-03T08:21:40;10.40;;;4.22;;
39492;SDS011;25176;51.060;3.720;2023-04-03T08:24:07;11.48;;;4.45;;
39492;SDS011;25176;51.060;3.720;2023-04-03T08:26:33;4.55;;;3.40;;
39492;SDS011;25176;51.060;3.720;2023-04-03T08:28:59;7.60;;;3.40;;
39492;SDS011;25176;51.060;3.720;2023-04-03T08:31:24;7.65;;;3.83;;
39492;SDS011;25176;51.060;3.720;2023-04-03T08:33:50;6.55;;;3.47;;
39492;SDS011;25176;51.060;3.720;2023-04-03T08:36:19;3.97;;;3.20;;
39492;SDS011;25176;51.060;3.720;2023-04-03T08:38:47;4.97;;;3.95;;
39492;SDS011;25176;51.060;3.720;2023-04-03T08:41:35;7.97;;;3.92;;
39492;SDS011;25176;51.060;3.720;2023-04-03T08:46:54;7.95;;;3.60;;
39492;SDS011;25176;51.060;3.720;2023-04-03T08:49:29;6.18;;;4.10;;
39492;SDS011;25176;51.060;3.720;2023-04-03T08:51:59;9.57;;;4.22;;
39492;SDS011;25176;51.060;3.720;2023-04-03T08:54:48;6.20;;;3.45;;
39492;SDS011;25176;51.060;3.720;2023-04-03T08:57:35;6.22;;;3.13;;
39492;SDS011;25176;51.060;3.720;2023-04-03T09:00:16;3.80;;;2.13;;
39492;SDS011;25176;51.060;3.720;2023-04-03T09:02:47;5.38;;;3.00;;
39492;SDS011;25176;51.060;3.720;2023-04-03T09:05:19;12.23;;;3.53;;
39492;SDS011;25176;51.060;3.720;2023-04-03T09:08:05;3.53;;;2.05;;
39492;SDS011;25176;51.060;3.720;2023-04-03T09:10:41;5.45;;;2.28;;
39492;SDS011;25176;51.060;3.720;2023-04-03T09:13:24;7.97;;;2.65;;
39492;SDS011;25176;51.060;3.720;2023-04-03T09:15:57;7.72;;;2.28;;
39492;SDS011;25176;51.060;3.720;2023-04-03T09:18:28;5.00;;;2.17;;
39492;SDS011;25176;51.060;3.720;2023-04-03T09:21:07;6.85;;;2.30;;
39492;SDS011;25176;51.060;3.720;2023-04-03T09:23:50;9.25;;;3.05;;
39492;SDS011;25176;51.060;3.720;2023-04-03T09:26:19;4.20;;;2.00;;
39492;SDS011;25176;51.060;3.720;2023-04-03T09:28:51;5.00;;;2.25;;
39492;SDS011;25176;51.060;3.720;2023-04-03T09:33:47;9.80;;;2.17;;
39492;SDS011;25176;51.060;3.720;2023-04-03T09:36:37;2.63;;;1.65;;
39492;SDS011;25176;51.060;3.720;2023-04-03T09:39:03;7.15;;;1.85;;
39492;SDS011;25176;51.060;3.720;2023-04-03T09:44:25;4.93;;;2.13;;
39492;SDS011;25176;51.060;3.720;2023-04-03T09:46:52;5.35;;;1.88;;
39492;SDS011;25176;51.060;3.720;2023-04-03T09:49:18;5.55;;;2.00;;
39492;SDS011;25176;51.060;3.720;2023-04-03T09:51:44;4.93;;;2.20;;
39492;SDS011;25176;51.060;3.720;2023-04-03T09:57:09;5.22;;;2.95;;
39492;SDS011;25176;51.060;3.720;2023-04-03T09:59:56;5.43;;;2.28;;
39492;SDS011;25176;51.060;3.720;2023-04-03T10:04:52;4.60;;;2.70;;
39492;SDS011;25176;51.060;3.720;2023-04-03T10:07:28;3.60;;;1.63;;
39492;SDS011;25176;51.060;3.720;2023-04-03T10:09:57;5.88;;;1.90;;
39492;SDS011;25176;51.060;3.720;2023-04-03T10:12:25;4.40;;;1.85;;
39492;SDS011;25176;51.060;3.720;2023-04-03T10:14:57;4.03;;;1.55;;
39492;SDS011;25176;51.060;3.720;2023-04-03T10:20:09;2.38;;;1.50;;
39492;SDS011;25176;51.060;3.720;2023-04-03T10:23:02;4.03;;;1.75;;
39492;SDS011;25176;51.060;3.720;2023-04-03T10:25:43;3.80;;;2.22;;
39492;SDS011;25176;51.060;3.720;2023-04-03T10:31:31;4.40;;;2.20;;
39492;SDS011;25176;51.060;3.720;2023-04-03T10:34:24;3.60;;;1.83;;
39492;SDS011;25176;51.060;3.720;2023-04-03T10:47:29;5.03;;;1.90;;
39492;SDS011;25176;51.060;3.720;2023-04-03T10:56:01;3.20;;;1.20;;
39492;SDS011;25176;51.060;3.720;2023-04-03T10:58:58;3.15;;;1.27;;
39492;SDS011;25176;51.060;3.720;2023-04-03T11:01:48;5.95;;;1.40;;
39492;SDS011;25176;51.060;3.720;2023-04-03T11:04:17;3.97;;;1.40;;
39492;SDS011;25176;51.060;3.720;2023-04-03T11:06:57;3.58;;;1.38;;
39492;SDS011;25176;51.060;3.720;2023-04-03T11:14:40;3.70;;;1.88;;
39492;SDS011;25176;51.060;3.720;2023-04-03T11:17:10;3.63;;;1.60;;
39492;SDS011;25176;51.060;3.720;2023-04-03T11:19:50;5.57;;;1.50;;
39492;SDS011;25176;51.060;3.720;2023-04-03T11:22:41;2.92;;;1.27;;
39492;SDS011;25176;51.060;3.720;2023-04-03T11:27:43;6.85;;;2.60;;
39492;SDS011;25176;51.060;3.720;2023-04-03T11:30:56;4.43;;;1.30;;
39492;SDS011;25176;51.060;3.720;2023-04-03T11:35:45;4.10;;;1.20;;
39492;SDS011;25176;51.060;3.720;2023-04-03T11:38:18;3.15;;;1.70;;
39492;SDS011;25176;51.060;3.720;2023-04-03T11:40:47;2.35;;;1.15;;
39492;SDS011;25176;51.060;3.720;2023-04-03T11:43:21;4.85;;;1.17;;
39492;SDS011;25176;51.060;3.720;2023-04-03T11:46:06;2.90;;;0.98;;
39492;SDS011;25176;51.060;3.720;2023-04-03T11:53:42;4.95;;;1.80;;
39492;SDS011;25176;51.060;3.720;2023-04-03T12:04:14;1.98;;;1.05;;
39492;SDS011;25176;51.060;3.720;2023-04-03T12:09:22;2.10;;;0.93;;
39492;SDS011;25176;51.060;3.720;2023-04-03T12:11:59;3.15;;;1.42;;
39492;SDS011;25176;51.060;3.720;2023-04-03T12:14:27;3.63;;;1.30;;
39492;SDS011;25176;51.060;3.720;2023-04-03T12:16:54;4.50;;;1.38;;
39492;SDS011;25176;51.060;3.720;2023-04-03T12:19:38;4.38;;;1.48;;
39492;SDS011;25176;51.060;3.720;2023-04-03T12:22:11;12.23;;;2.08;;
39492;SDS011;25176;51.060;3.720;2023-04-03T12:24:39;5.72;;;1.20;;
39492;SDS011;25176;51.060;3.720;2023-04-03T12:27:26;2.95;;;1.30;;
39492;SDS011;25176;51.060;3.720;2023-04-03T12:32:35;3.45;;;1.20;;
39492;SDS011;25176;51.060;3.720;2023-04-03T12:37:49;3.17;;;1.15;;
39492;SDS011;25176;51.060;3.720;2023-04-03T12:43:31;3.05;;;1.20;;
39492;SDS011;25176;51.060;3.720;2023-04-03T12:46:21;2.85;;;1.42;;
39492;SDS011;25176;51.060;3.720;2023-04-03T12:48:49;3.08;;;1.15;;
39492;SDS011;25176;51.060;3.720;2023-04-03T12:51:29;3.75;;;1.27;;
39492;SDS011;25176;51.060;3.720;2023-04-03T12:54:03;4.40;;;1.20;;
39492;SDS011;25176;51.060;3.720;2023-04-03T12:56:38;3.90;;;1.73;;
39492;SDS011;25176;51.060;3.720;2023-04-03T12:59:14;3.70;;;1.52;;
39492;SDS011;25176;51.060;3.720;2023-04-03T13:02:00;3.22;;;1.38;;
39492;SDS011;25176;51.060;3.720;2023-04-03T13:04:30;4.20;;;1.60;;
39492;SDS011;25176;51.060;3.720;2023-04-03T13:06:57;5.03;;;1.58;;
39492;SDS011;25176;51.060;3.720;2023-04-03T13:11:51;2.60;;;1.52;;
39492;SDS011;25176;51.060;3.720;2023-04-03T13:14:22;3.88;;;1.00;;
39492;SDS011;25176;51.060;3.720;2023-04-03T13:16:59;3.45;;;1.00;;
39492;SDS011;25176;51.060;3.720;2023-04-03T13:19:29;3.88;;;1.00;;
39492;SDS011;25176;51.060;3.720;2023-04-03T13:22:00;5.30;;;1.40;;
39492;SDS011;25176;51.060;3.720;2023-04-03T13:24:29;2.70;;;1.00;;
39492;SDS011;25176;51.060;3.720;2023-04-03T13:26:57;2.20;;;0.88;;
39492;SDS011;25176;51.060;3.720;2023-04-03T13:29:25;4.88;;;1.30;;
39492;SDS011;25176;51.060;3.720;2023-04-03T13:31:54;3.90;;;1.80;;
39492;SDS011;25176;51.060;3.720;2023-04-03T13:34:21;2.78;;;0.90;;
39492;SDS011;25176;51.060;3.720;2023-04-03T13:39:27;5.80;;;1.40;;
39492;SDS011;25176;51.060;3.720;2023-04-03T13:41:58;10.15;;;2.00;;
39492;SDS011;25176;51.060;3.720;2023-04-03T13:44:46;5.10;;;1.35;;
39492;SDS011;25176;51.060;3.720;2023-04-03T13:50:29;1.00;;;0.73;;
39492;SDS011;25176;51.060;3.720;2023-04-03T13:52:41;2.70;;;0.95;;
39492;SDS011;25176;51.060;3.720;2023-04-03T13:55:29;3.47;;;1.50;;
39492;SDS011;25176;51.060;3.720;2023-04-03T13:57:58;6.70;;;1.20;;
39492;SDS011;25176;51.060;3.720;2023-04-03T14:03:37;5.40;;;1.00;;
39492;SDS011;25176;51.060;3.720;2023-04-03T14:06:10;2.83;;;1.00;;
39492;SDS011;25176;51.060;3.720;2023-04-03T14:08:40;5.35;;;1.52;;
39492;SDS011;25176;51.060;3.720;2023-04-03T14:11:08;3.65;;;0.90;;
39492;SDS011;25176;51.060;3.720;2023-04-03T14:13:37;2.33;;;1.08;;
39492;SDS011;25176;51.060;3.720;2023-04-03T14:16:03;0.73;;;0.73;;
39492;SDS011;25176;51.060;3.720;2023-04-03T14:18:29;3.53;;;0.90;;
39492;SDS011;25176;51.060;3.720;2023-04-03T14:20:54;1.55;;;0.82;;
39492;SDS011;25176;51.060;3.720;2023-04-03T14:23:20;1.85;;;0.90;;
39492;SDS011;25176;51.060;3.720;2023-04-03T14:25:46;4.10;;;0.90;;
39492;SDS011;25176;51.060;3.720;2023-04-03T14:28:16;1.30;;;1.02;;
39492;SDS011;25176;51.060;3.720;2023-04-03T14:30:47;4.25;;;1.00;;
39492;SDS011;25176;51.060;3.720;2023-04-03T14:33:17;3.17;;;1.00;;
39492;SDS011;25176;51.060;3.720;2023-04-03T14:35:44;3.58;;;1.38;;
39492;SDS011;25176;51.060;3.720;2023-04-03T14:41:06;3.33;;;1.05;;
39492;SDS011;25176;51.060;3.720;2023-04-03T14:43:32;1.60;;;0.70;;
39492;SDS011;25176;51.060;3.720;2023-04-03T14:45:58;1.90;;;1.00;;
39492;SDS011;25176;51.060;3.720;2023-04-03T14:48:24;2.42;;;0.90;;
39492;SDS011;25176;51.060;3.720;2023-04-03T14:50:52;4.38;;;1.00;;
39492;SDS011;25176;51.060;3.720;2023-04-03T14:53:18;3.92;;;1.05;;
39492;SDS011;25176;51.060;3.720;2023-04-03T14:55:47;2.00;;;0.90;;
39492;SDS011;25176;51.060;3.720;2023-04-03T14:58:15;1.55;;;0.82;;
39492;SDS011;25176;51.060;3.720;2023-04-03T15:00:43;2.67;;;1.13;;
39492;SDS011;25176;51.060;3.720;2023-04-03T15:03:12;2.53;;;0.90;;
39492;SDS011;25176;51.060;3.720;2023-04-03T15:05:39;2.53;;;1.40;;
39492;SDS011;25176;51.060;3.720;2023-04-03T15:08:05;3.53;;;1.27;;
39492;SDS011;25176;51.060;3.720;2023-04-03T15:10:38;1.63;;;0.93;;
39492;SDS011;25176;51.060;3.720;2023-04-03T15:13:04;3.17;;;0.80;;
39492;SDS011;25176;51.060;3.720;2023-04-03T15:15:30;2.78;;;0.93;;
39492;SDS011;25176;51.060;3.720;2023-04-03T15:17:56;3.97;;;1.25;;
39492;SDS011;25176;51.060;3.720;2023-04-03T15:20:23;2.83;;;1.30;;
39492;SDS011;25176;51.060;3.720;2023-04-03T15:22:50;2.55;;;0.82;;
39492;SDS011;25176;51.060;3.720;2023-04-03T15:25:16;6.78;;;1.08;;
39492;SDS011;25176;51.060;3.720;2023-04-03T15:27:43;2.72;;;0.90;;
39492;SDS011;25176;51.060;3.720;2023-04-03T15:30:11;4.10;;;1.10;;
39492;SDS011;25176;51.060;3.720;2023-04-03T15:32:41;3.65;;;1.10;;
39492;SDS011;25176;51.060;3.720;2023-04-03T15:35:06;5.38;;;1.65;;
39492;SDS011;25176;51.060;3.720;2023-04-03T15:37:32;1.30;;;0.85;;
39492;SDS011;25176;51.060;3.720;2023-04-03T15:39:58;1.38;;;0.82;;
39492;SDS011;25176;51.060;3.720;2023-04-03T15:42:24;1.58;;;1.10;;
39492;SDS011;25176;51.060;3.720;2023-04-03T15:44:50;3.78;;;1.08;;
39492;SDS011;25176;51.060;3.720;2023-04-03T15:47:15;3.15;;;1.10;;
39492;SDS011;25176;51.060;3.720;2023-04-03T15:49:41;2.45;;;1.00;;
39492;SDS011;25176;51.060;3.720;2023-04-03T15:52:07;2.35;;;1.10;;
39492;SDS011;25176;51.060;3.720;2023-04-03T15:54:32;2.30;;;0.88;;
39492;SDS011;25176;51.060;3.720;2023-04-03T15:56:58;2.97;;;1.23;;
39492;SDS011;25176;51.060;3.720;2023-04-03T15:59:24;2.38;;;0.90;;
39492;SDS011;25176;51.060;3.720;2023-04-03T16:01:50;2.42;;;0.90;;
39492;SDS011;25176;51.060;3.720;2023-04-03T16:04:17;1.50;;;0.85;;
39492;SDS011;25176;51.060;3.720;2023-04-03T16:06:43;1.13;;;0.88;;
39492;SDS011;25176;51.060;3.720;2023-04-03T16:09:09;2.15;;;0.90;;
39492;SDS011;25176;51.060;3.720;2023-04-03T16:11:35;1.70;;;0.98;;
39492;SDS011;25176;51.060;3.720;2023-04-03T16:14:04;2.15;;;0.70;;
39492;SDS011;25176;51.060;3.720;2023-04-03T16:16:30;2.33;;;0.80;;
39492;SDS011;25176;51.060;3.720;2023-04-03T16:18:55;1.67;;;0.90;;
39492;SDS011;25176;51.060;3.720;2023-04-03T16:21:21;2.88;;;0.85;;
39492;SDS011;25176;51.060;3.720;2023-04-03T16:23:47;4.63;;;1.30;;
39492;SDS011;25176;51.060;3.720;2023-04-03T16:26:13;1.80;;;0.93;;
39492;SDS011;25176;51.060;3.720;2023-04-03T16:28:39;2.17;;;1.02;;
39492;SDS011;25176;51.060;3.720;2023-04-03T16:31:05;6.07;;;1.73;;